sensor_id;sensor_type;location;lat;lon;timestamp;pressure;altitude;pressure_sealevel;temperature
70668;BMP280;58242;51.250;-1.118;2023-11-19T00:00:21;99527.72;;;16.46
70668;BMP280;58242;51.250;-1.118;2023-11-19T00:02:46;99533.81;;;16.43
70668;BMP280;58242;51.250;-1.118;2023-11-19T00:05:12;99535.78;;;16.43
70668;BMP280;58242;51.250;-1.118;2023-11-19T00:07:39;99543.09;;;16.43
70668;BMP280;58242;51.250;-1.118;2023-11-19T00:10:08;99531.09;;;16.40
70668;BMP280;58242;51.250;-1.118;2023-11-19T00:12:34;99526.09;;;16.39
70668;BMP280;58242;51.250;-1.118;2023-11-19T00:15:00;99527.59;;;16.36
70668;BMP280;58242;51.250;-1.118;2023-11-19T00:17:25;99524.91;;;16.36
70668;BMP280;58242;51.250;-1.118;2023-11-19T00:19:52;99518.34;;;16.34
70668;BMP280;58242;51.250;-1.118;2023-11-19T00:22:17;99519.47;;;16.33
70668;BMP280;58242;51.250;-1.118;2023-11-19T00:24:42;99519.09;;;16.31
70668;BMP280;58242;51.250;-1.118;2023-11-19T00:27:08;99522.94;;;16.30
70668;BMP280;58242;51.250;-1.118;2023-11-19T00:29:33;99509.06;;;16.28
70668;BMP280;58242;51.250;-1.118;2023-11-19T00:31:58;99516.38;;;16.27
70668;BMP280;58242;51.250;-1.118;2023-11-19T00:34:23;99528.31;;;16.26
70668;BMP280;58242;51.250;-1.118;2023-11-19T00:36:49;99539.09;;;16.26
70668;BMP280;58242;51.250;-1.118;2023-11-19T00:39:15;99533.28;;;16.25
70668;BMP280;58242;51.250;-1.118;2023-11-19T00:41:40;99527.88;;;16.25
70668;BMP280;58242;51.250;-1.118;2023-11-19T00:44:06;99522.47;;;16.21
70668;BMP280;58242;51.250;-1.118;2023-11-19T00:46:31;99533.63;;;16.20
70668;BMP280;58242;51.250;-1.118;2023-11-19T00:48:58;99520.13;;;16.16
70668;BMP280;58242;51.250;-1.118;2023-11-19T00:51:25;99535.53;;;16.16
70668;BMP280;58242;51.250;-1.118;2023-11-19T00:53:51;99527.44;;;16.16
70668;BMP280;58242;51.250;-1.118;2023-11-19T00:56:18;99525.88;;;16.15
70668;BMP280;58242;51.250;-1.118;2023-11-19T00:58:44;99515.44;;;16.13
70668;BMP280;58242;51.250;-1.118;2023-11-19T01:01:11;99524.72;;;16.12
70668;BMP280;58242;51.250;-1.118;2023-11-19T01:03:37;99513.16;;;16.12
70668;BMP280;58242;51.250;-1.118;2023-11-19T01:06:02;99516.97;;;16.11
70668;BMP280;58242;51.250;-1.118;2023-11-19T01:08:28;99504.63;;;16.10
70668;BMP280;58242;51.250;-1.118;2023-11-19T01:10:54;99510.03;;;16.10
70668;BMP280;58242;51.250;-1.118;2023-11-19T01:13:19;99506.56;;;16.09
70668;BMP280;58242;51.250;-1.118;2023-11-19T01:15:44;99515.03;;;16.08
70668;BMP280;58242;51.250;-1.118;2023-11-19T01:18:10;99510.00;;;16.07
70668;BMP280;58242;51.250;-1.118;2023-11-19T01:20:36;99514.63;;;16.06
70668;BMP280;58242;51.250;-1.118;2023-11-19T01:23:02;99508.44;;;16.06
70668;BMP280;58242;51.250;-1.118;2023-11-19T01:25:27;99506.53;;;16.06
70668;BMP280;58242;51.250;-1.118;2023-11-19T01:27:53;99498.81;;;16.05
70668;BMP280;58242;51.250;-1.118;2023-11-19T01:30:18;99494.56;;;16.04
70668;BMP280;58242;51.250;-1.118;2023-11-19T01:32:44;99502.66;;;16.04
70668;BMP280;58242;51.250;-1.118;2023-11-19T01:35:10;99502.25;;;16.02
70668;BMP280;58242;51.250;-1.118;2023-11-19T01:37:35;99515.72;;;16.02
70668;BMP280;58242;51.250;-1.118;2023-11-19T01:40:01;99511.88;;;16.03
70668;BMP280;58242;51.250;-1.118;2023-11-19T01:42:29;99511.88;;;16.03
70668;BMP280;58242;51.250;-1.118;2023-11-19T01:44:57;99510.75;;;16.04
70668;BMP280;58242;51.250;-1.118;2023-11-19T01:47:23;99516.16;;;16.04
70668;BMP280;58242;51.250;-1.118;2023-11-19T01:49:49;99521.19;;;16.05
70668;BMP280;58242;51.250;-1.118;2023-11-19T01:52:15;99511.53;;;16.04
70668;BMP280;58242;51.250;-1.118;2023-11-19T01:54:41;99513.03;;;16.02
70668;BMP280;58242;51.250;-1.118;2023-11-19T01:57:06;99516.13;;;16.00
70668;BMP280;58242;51.250;-1.118;2023-11-19T01:59:32;99518.03;;;16.00
70668;BMP280;58242;51.250;-1.118;2023-11-19T02:01:57;99510.72;;;16.00
70668;BMP280;58242;51.250;-1.118;2023-11-19T02:04:23;99515.34;;;16.00
70668;BMP280;58242;51.250;-1.118;2023-11-19T02:06:51;99513.41;;;16.00
70668;BMP280;58242;51.250;-1.118;2023-11-19T02:09:19;99502.22;;;15.98
70668;BMP280;58242;51.250;-1.118;2023-11-19T02:11:45;99513.00;;;15.98
70668;BMP280;58242;51.250;-1.118;2023-11-19T02:14:14;99518.78;;;15.97
70668;BMP280;58242;51.250;-1.118;2023-11-19T02:16:39;99511.47;;;15.97
70668;BMP280;58242;51.250;-1.118;2023-11-19T02:19:04;99506.44;;;15.96
70668;BMP280;58242;51.250;-1.118;2023-11-19T02:21:31;99524.94;;;15.97
70668;BMP280;58242;51.250;-1.118;2023-11-19T02:23:57;99511.84;;;15.96
70668;BMP280;58242;51.250;-1.118;2023-11-19T02:26:30;99518.34;;;15.95
70668;BMP280;58242;51.250;-1.118;2023-11-19T02:28:56;99501.78;;;15.93
70668;BMP280;58242;51.250;-1.118;2023-11-19T02:31:21;99498.66;;;15.91
70668;BMP280;58242;51.250;-1.118;2023-11-19T02:33:48;99503.25;;;15.91
70668;BMP280;58242;51.250;-1.118;2023-11-19T02:36:15;99490.94;;;15.90
70668;BMP280;58242;51.250;-1.118;2023-11-19T02:38:40;99483.22;;;15.88
70668;BMP280;58242;51.250;-1.118;2023-11-19T02:41:06;99488.63;;;15.88
70668;BMP280;58242;51.250;-1.118;2023-11-19T02:43:33;99484.34;;;15.87
70668;BMP280;58242;51.250;-1.118;2023-11-19T02:46:00;99483.59;;;15.87
70668;BMP280;58242;51.250;-1.118;2023-11-19T02:48:26;99477.03;;;15.84
70668;BMP280;58242;51.250;-1.118;2023-11-19T02:50:51;99473.16;;;15.82
70668;BMP280;58242;51.250;-1.118;2023-11-19T02:53:17;99468.91;;;15.81
70668;BMP280;58242;51.250;-1.118;2023-11-19T02:55:43;99469.25;;;15.79
70668;BMP280;58242;51.250;-1.118;2023-11-19T02:58:13;99456.97;;;15.78
70668;BMP280;58242;51.250;-1.118;2023-11-19T03:00:45;99471.97;;;15.79
70668;BMP280;58242;51.250;-1.118;2023-11-19T03:03:17;99456.19;;;15.78
70668;BMP280;58242;51.250;-1.118;2023-11-19T03:05:46;99436.53;;;15.77
70668;BMP280;58242;51.250;-1.118;2023-11-19T03:08:12;99432.28;;;15.76
70668;BMP280;58242;51.250;-1.118;2023-11-19T03:10:37;99438.06;;;15.75
70668;BMP280;58242;51.250;-1.118;2023-11-19T03:13:03;99445.38;;;15.74
70668;BMP280;58242;51.250;-1.118;2023-11-19T03:15:28;99447.28;;;15.74
70668;BMP280;58242;51.250;-1.118;2023-11-19T03:17:53;99429.22;;;15.74
70668;BMP280;58242;51.250;-1.118;2023-11-19T03:20:19;99423.41;;;15.73
70668;BMP280;58242;51.250;-1.118;2023-11-19T03:22:46;99413.75;;;15.72
70668;BMP280;58242;51.250;-1.118;2023-11-19T03:25:11;99424.53;;;15.72
70668;BMP280;58242;51.250;-1.118;2023-11-19T03:27:40;99418.41;;;15.71
70668;BMP280;58242;51.250;-1.118;2023-11-19T03:30:08;99417.97;;;15.69
70668;BMP280;58242;51.250;-1.118;2023-11-19T03:32:35;99419.13;;;15.68
70668;BMP280;58242;51.250;-1.118;2023-11-19T03:35:01;99422.59;;;15.69
70668;BMP280;58242;51.250;-1.118;2023-11-19T03:37:26;99441.88;;;15.71
70668;BMP280;58242;51.250;-1.118;2023-11-19T03:39:53;99441.47;;;15.72
70668;BMP280;58242;51.250;-1.118;2023-11-19T03:42:19;99436.88;;;15.73
70668;BMP280;58242;51.250;-1.118;2023-11-19T03:44:46;99444.94;;;15.73
70668;BMP280;58242;51.250;-1.118;2023-11-19T03:47:11;99448.44;;;15.73
70668;BMP280;58242;51.250;-1.118;2023-11-19T03:49:36;99436.88;;;15.73
70668;BMP280;58242;51.250;-1.118;2023-11-19T03:52:02;99448.44;;;15.73
70668;BMP280;58242;51.250;-1.118;2023-11-19T03:54:27;99440.75;;;15.75
70668;BMP280;58242;51.250;-1.118;2023-11-19T03:56:53;99446.16;;;15.75
70668;BMP280;58242;51.250;-1.118;2023-11-19T03:59:18;99438.44;;;15.74
70668;BMP280;58242;51.250;-1.118;2023-11-19T04:01:45;99444.19;;;15.75
70668;BMP280;58242;51.250;-1.118;2023-11-19T04:04:11;99449.97;;;15.74
70668;BMP280;58242;51.250;-1.118;2023-11-19T04:06:36;99445.38;;;15.74
70668;BMP280;58242;51.250;-1.118;2023-11-19T04:09:01;99445.75;;;15.76
70668;BMP280;58242;51.250;-1.118;2023-11-19T04:11:27;99446.91;;;15.75
70668;BMP280;58242;51.250;-1.118;2023-11-19T04:13:52;99449.22;;;15.77
70668;BMP280;58242;51.250;-1.118;2023-11-19T04:16:18;99456.53;;;15.76
70668;BMP280;58242;51.250;-1.118;2023-11-19T04:18:43;99444.63;;;15.77
70668;BMP280;58242;51.250;-1.118;2023-11-19T04:21:08;99451.16;;;15.76
70668;BMP280;58242;51.250;-1.118;2023-11-19T04:23:33;99458.50;;;15.79
70668;BMP280;58242;51.250;-1.118;2023-11-19T04:26:02;99432.31;;;15.80
70668;BMP280;58242;51.250;-1.118;2023-11-19T04:28:27;99442.31;;;15.79
70668;BMP280;58242;51.250;-1.118;2023-11-19T04:30:53;99442.31;;;15.79
70668;BMP280;58242;51.250;-1.118;2023-11-19T04:33:18;99434.66;;;15.81
70668;BMP280;58242;51.250;-1.118;2023-11-19T04:35:43;99450.03;;;15.81
70668;BMP280;58242;51.250;-1.118;2023-11-19T04:38:08;99451.97;;;15.80
70668;BMP280;58242;51.250;-1.118;2023-11-19T04:40:34;99445.44;;;15.81
70668;BMP280;58242;51.250;-1.118;2023-11-19T04:42:59;99440.03;;;15.81
70668;BMP280;58242;51.250;-1.118;2023-11-19T04:45:24;99436.56;;;15.81
70668;BMP280;58242;51.250;-1.118;2023-11-19T04:47:50;99438.50;;;15.80
70668;BMP280;58242;51.250;-1.118;2023-11-19T04:50:15;99442.31;;;15.79
70668;BMP280;58242;51.250;-1.118;2023-11-19T04:52:40;99430.78;;;15.79
70668;BMP280;58242;51.250;-1.118;2023-11-19T04:55:07;99431.19;;;15.81
70668;BMP280;58242;51.250;-1.118;2023-11-19T04:57:32;99446.56;;;15.80
70668;BMP280;58242;51.250;-1.118;2023-11-19T04:59:58;99438.50;;;15.80
70668;BMP280;58242;51.250;-1.118;2023-11-19T05:02:23;99443.88;;;15.80
70668;BMP280;58242;51.250;-1.118;2023-11-19T05:04:49;99437.75;;;15.83
70668;BMP280;58242;51.250;-1.118;2023-11-19T05:07:14;99436.63;;;15.88
70668;BMP280;58242;51.250;-1.118;2023-11-19T05:09:39;99430.94;;;15.92
70668;BMP280;58242;51.250;-1.118;2023-11-19T05:12:05;99440.59;;;15.97
70668;BMP280;58242;51.250;-1.118;2023-11-19T05:14:33;99436.03;;;16.01
70668;BMP280;58242;51.250;-1.118;2023-11-19T05:16:59;99447.59;;;16.05
70668;BMP280;58242;51.250;-1.118;2023-11-19T05:19:24;99448.78;;;16.07
70668;BMP280;58242;51.250;-1.118;2023-11-19T05:21:49;99454.94;;;16.08
70668;BMP280;58242;51.250;-1.118;2023-11-19T05:24:17;99447.25;;;16.09
70668;BMP280;58242;51.250;-1.118;2023-11-19T05:26:43;99463.41;;;16.09
70668;BMP280;58242;51.250;-1.118;2023-11-19T05:29:08;99447.22;;;16.06
70668;BMP280;58242;51.250;-1.118;2023-11-19T05:31:33;99446.44;;;16.06
70668;BMP280;58242;51.250;-1.118;2023-11-19T05:33:59;99451.81;;;16.02
70668;BMP280;58242;51.250;-1.118;2023-11-19T05:36:24;99442.56;;;16.00
70668;BMP280;58242;51.250;-1.118;2023-11-19T05:38:49;99454.47;;;15.99
70668;BMP280;58242;51.250;-1.118;2023-11-19T05:41:14;99458.34;;;15.98
70668;BMP280;58242;51.250;-1.118;2023-11-19T05:43:40;99456.38;;;15.95
70668;BMP280;58242;51.250;-1.118;2023-11-19T05:46:06;99452.53;;;15.96
70668;BMP280;58242;51.250;-1.118;2023-11-19T05:48:32;99445.19;;;15.93
70668;BMP280;58242;51.250;-1.118;2023-11-19T05:50:58;99452.81;;;15.91
70668;BMP280;58242;51.250;-1.118;2023-11-19T05:53:23;99456.69;;;15.90
70668;BMP280;58242;51.250;-1.118;2023-11-19T05:55:49;99457.41;;;15.87
70668;BMP280;58242;51.250;-1.118;2023-11-19T05:58:22;99447.03;;;15.86
70668;BMP280;58242;51.250;-1.118;2023-11-19T06:00:48;99450.81;;;15.81
70668;BMP280;58242;51.250;-1.118;2023-11-19T06:03:15;99450.03;;;15.81
70668;BMP280;58242;51.250;-1.118;2023-11-19T06:05:41;99455.03;;;15.79
70668;BMP280;58242;51.250;-1.118;2023-11-19T06:08:06;99452.72;;;15.77
70668;BMP280;58242;51.250;-1.118;2023-11-19T06:10:32;99449.59;;;15.75
70668;BMP280;58242;51.250;-1.118;2023-11-19T06:12:58;99449.22;;;15.74
70668;BMP280;58242;51.250;-1.118;2023-11-19T06:15:28;99446.09;;;15.72
70668;BMP280;58242;51.250;-1.118;2023-11-19T06:17:53;99439.91;;;15.68
70668;BMP280;58242;51.250;-1.118;2023-11-19T06:20:19;99435.66;;;15.67
70668;BMP280;58242;51.250;-1.118;2023-11-19T06:22:45;99447.19;;;15.64
70668;BMP280;58242;51.250;-1.118;2023-11-19T06:25:11;99447.56;;;15.62
70668;BMP280;58242;51.250;-1.118;2023-11-19T06:27:36;99447.91;;;15.61
70668;BMP280;58242;51.250;-1.118;2023-11-19T06:30:02;99461.38;;;15.61
70668;BMP280;58242;51.250;-1.118;2023-11-19T06:32:27;99454.09;;;15.61
70668;BMP280;58242;51.250;-1.118;2023-11-19T06:34:53;99445.59;;;15.59
70668;BMP280;58242;51.250;-1.118;2023-11-19T06:37:19;99457.53;;;15.58
70668;BMP280;58242;51.250;-1.118;2023-11-19T06:39:44;99448.66;;;15.58
70668;BMP280;58242;51.250;-1.118;2023-11-19T06:42:09;99446.38;;;15.60
70668;BMP280;58242;51.250;-1.118;2023-11-19T06:44:35;99453.31;;;15.61
70668;BMP280;58242;51.250;-1.118;2023-11-19T06:47:00;99443.69;;;15.60
70668;BMP280;58242;51.250;-1.118;2023-11-19T06:49:25;99442.53;;;15.61
70668;BMP280;58242;51.250;-1.118;2023-11-19T06:51:51;99445.22;;;15.61
70668;BMP280;58242;51.250;-1.118;2023-11-19T06:54:16;99452.16;;;15.62
70668;BMP280;58242;51.250;-1.118;2023-11-19T06:56:41;99454.09;;;15.61
70668;BMP280;58242;51.250;-1.118;2023-11-19T06:59:07;99455.63;;;15.62
70668;BMP280;58242;51.250;-1.118;2023-11-19T07:01:36;99452.19;;;15.65
70668;BMP280;58242;51.250;-1.118;2023-11-19T07:04:02;99462.97;;;15.65
70668;BMP280;58242;51.250;-1.118;2023-11-19T07:06:33;99463.75;;;15.66
70668;BMP280;58242;51.250;-1.118;2023-11-19T07:08:59;99462.97;;;15.65
70668;BMP280;58242;51.250;-1.118;2023-11-19T07:11:24;99464.09;;;15.64
70668;BMP280;58242;51.250;-1.118;2023-11-19T07:13:50;99461.81;;;15.63
70668;BMP280;58242;51.250;-1.118;2023-11-19T07:16:15;99456.00;;;15.61
70668;BMP280;58242;51.250;-1.118;2023-11-19T07:18:40;99451.00;;;15.59
70668;BMP280;58242;51.250;-1.118;2023-11-19T07:21:07;99459.06;;;15.59
70668;BMP280;58242;51.250;-1.118;2023-11-19T07:23:35;99457.09;;;15.57
70668;BMP280;58242;51.250;-1.118;2023-11-19T07:26:01;99472.91;;;15.58
70668;BMP280;58242;51.250;-1.118;2023-11-19T07:28:26;99478.28;;;15.58
70668;BMP280;58242;51.250;-1.118;2023-11-19T07:30:54;99477.22;;;15.66
70668;BMP280;58242;51.250;-1.118;2023-11-19T07:33:21;99479.97;;;15.73
70668;BMP280;58242;51.250;-1.118;2023-11-19T07:35:47;99483.94;;;15.82
70668;BMP280;58242;51.250;-1.118;2023-11-19T07:38:13;99489.03;;;15.90
70668;BMP280;58242;51.250;-1.118;2023-11-19T07:40:38;99491.44;;;15.98
70668;BMP280;58242;51.250;-1.118;2023-11-19T07:43:03;99491.13;;;16.07
70668;BMP280;58242;51.250;-1.118;2023-11-19T07:45:28;99494.31;;;16.15
70668;BMP280;58242;51.250;-1.118;2023-11-19T07:47:54;99481.22;;;16.21
70668;BMP280;58242;51.250;-1.118;2023-11-19T07:50:20;99478.19;;;16.26
70668;BMP280;58242;51.250;-1.118;2023-11-19T07:52:45;99482.47;;;16.30
70668;BMP280;58242;51.250;-1.118;2023-11-19T07:55:10;99481.34;;;16.31
70668;BMP280;58242;51.250;-1.118;2023-11-19T07:57:36;99479.44;;;16.35
70668;BMP280;58242;51.250;-1.118;2023-11-19T08:00:02;99468.25;;;16.36
70668;BMP280;58242;51.250;-1.118;2023-11-19T08:02:28;99460.94;;;16.37
70668;BMP280;58242;51.250;-1.118;2023-11-19T08:04:53;99458.25;;;16.37
70668;BMP280;58242;51.250;-1.118;2023-11-19T08:07:20;99445.53;;;16.37
70668;BMP280;58242;51.250;-1.118;2023-11-19T08:09:45;99445.19;;;16.39
70668;BMP280;58242;51.250;-1.118;2023-11-19T08:12:11;99447.91;;;16.42
70668;BMP280;58242;51.250;-1.118;2023-11-19T08:14:39;99448.31;;;16.47
70668;BMP280;58242;51.250;-1.118;2023-11-19T08:17:04;99452.19;;;16.50
70668;BMP280;58242;51.250;-1.118;2023-11-19T08:19:29;99445.25;;;16.52
70668;BMP280;58242;51.250;-1.118;2023-11-19T08:21:55;99444.50;;;16.55
70668;BMP280;58242;51.250;-1.118;2023-11-19T08:24:20;99442.97;;;16.54
70668;BMP280;58242;51.250;-1.118;2023-11-19T08:26:45;99447.22;;;16.59
70668;BMP280;58242;51.250;-1.118;2023-11-19T08:29:10;99456.91;;;16.63
70668;BMP280;58242;51.250;-1.118;2023-11-19T08:31:36;99456.94;;;16.70
70668;BMP280;58242;51.250;-1.118;2023-11-19T08:34:01;99456.22;;;16.76
70668;BMP280;58242;51.250;-1.118;2023-11-19T08:36:26;99448.53;;;16.81
70668;BMP280;58242;51.250;-1.118;2023-11-19T08:38:53;99445.88;;;16.88
70668;BMP280;58242;51.250;-1.118;2023-11-19T08:41:18;99444.75;;;16.96
70668;BMP280;58242;51.250;-1.118;2023-11-19T08:43:44;99451.75;;;17.04
70668;BMP280;58242;51.250;-1.118;2023-11-19T08:46:11;99455.66;;;17.10
70668;BMP280;58242;51.250;-1.118;2023-11-19T08:48:36;99464.13;;;17.12
70668;BMP280;58242;51.250;-1.118;2023-11-19T08:51:01;99475.72;;;17.15
70668;BMP280;58242;51.250;-1.118;2023-11-19T08:53:26;99483.09;;;17.18
70668;BMP280;58242;51.250;-1.118;2023-11-19T08:55:52;99475.00;;;17.18
70668;BMP280;58242;51.250;-1.118;2023-11-19T08:58:17;99465.31;;;17.17
70668;BMP280;58242;51.250;-1.118;2023-11-19T09:00:43;99461.06;;;17.13
70668;BMP280;58242;51.250;-1.118;2023-11-19T09:03:08;99467.59;;;17.09
70668;BMP280;58242;51.250;-1.118;2023-11-19T09:05:34;99457.22;;;17.11
70668;BMP280;58242;51.250;-1.118;2023-11-19T09:08:00;99445.63;;;17.13
70668;BMP280;58242;51.250;-1.118;2023-11-19T09:10:25;99456.03;;;17.15
70668;BMP280;58242;51.250;-1.118;2023-11-19T09:12:51;99451.81;;;17.17
70668;BMP280;58242;51.250;-1.118;2023-11-19T09:15:17;99446.44;;;17.17
70668;BMP280;58242;51.250;-1.118;2023-11-19T09:17:42;99451.44;;;17.19
70668;BMP280;58242;51.250;-1.118;2023-11-19T09:20:08;99459.56;;;17.22
70668;BMP280;58242;51.250;-1.118;2023-11-19T09:22:33;99447.59;;;17.27
70668;BMP280;58242;51.250;-1.118;2023-11-19T09:24:58;99457.28;;;17.31
70668;BMP280;58242;51.250;-1.118;2023-11-19T09:27:25;99452.66;;;17.35
70668;BMP280;58242;51.250;-1.118;2023-11-19T09:29:51;99440.34;;;17.41
70668;BMP280;58242;51.250;-1.118;2023-11-19T09:32:22;99443.44;;;17.53
70668;BMP280;58242;51.250;-1.118;2023-11-19T09:34:47;99421.88;;;17.63
70668;BMP280;58242;51.250;-1.118;2023-11-19T09:37:13;99424.94;;;17.75
70668;BMP280;58242;51.250;-1.118;2023-11-19T09:39:38;99425.00;;;17.89
70668;BMP280;58242;51.250;-1.118;2023-11-19T09:42:03;99434.28;;;18.08
70668;BMP280;58242;51.250;-1.118;2023-11-19T09:44:29;99424.59;;;18.24
70668;BMP280;58242;51.250;-1.118;2023-11-19T09:46:55;99415.34;;;18.42
70668;BMP280;58242;51.250;-1.118;2023-11-19T09:49:25;99425.34;;;18.66
70668;BMP280;58242;51.250;-1.118;2023-11-19T09:51:51;99409.03;;;18.89
70668;BMP280;58242;51.250;-1.118;2023-11-19T09:54:17;99419.34;;;19.25
70668;BMP280;58242;51.250;-1.118;2023-11-19T09:56:43;99420.72;;;19.63
70668;BMP280;58242;51.250;-1.118;2023-11-19T09:59:08;99422.09;;;19.88
70668;BMP280;58242;51.250;-1.118;2023-11-19T10:01:37;99419.66;;;20.04
70668;BMP280;58242;51.250;-1.118;2023-11-19T10:04:02;99425.66;;;20.31
70668;BMP280;58242;51.250;-1.118;2023-11-19T10:06:28;99415.63;;;20.64
70668;BMP280;58242;51.250;-1.118;2023-11-19T10:08:54;99400.41;;;21.06
70668;BMP280;58242;51.250;-1.118;2023-11-19T10:11:20;99417.28;;;21.24
70668;BMP280;58242;51.250;-1.118;2023-11-19T10:13:46;99423.84;;;21.26
70668;BMP280;58242;51.250;-1.118;2023-11-19T10:16:13;99408.72;;;21.25
70668;BMP280;58242;51.250;-1.118;2023-11-19T10:18:49;99420.44;;;21.19
70668;BMP280;58242;51.250;-1.118;2023-11-19T10:21:18;99435.72;;;21.09
70668;BMP280;58242;51.250;-1.118;2023-11-19T10:23:56;99423.47;;;20.91
70668;BMP280;58242;51.250;-1.118;2023-11-19T10:26:24;99426.38;;;20.74
70668;BMP280;58242;51.250;-1.118;2023-11-19T10:28:50;99416.88;;;20.56
70668;BMP280;58242;51.250;-1.118;2023-11-19T10:31:16;99436.41;;;20.41
70668;BMP280;58242;51.250;-1.118;2023-11-19T10:33:42;99428.75;;;20.26
70668;BMP280;58242;51.250;-1.118;2023-11-19T10:36:10;99432.75;;;20.12
70668;BMP280;58242;51.250;-1.118;2023-11-19T10:38:37;99447.63;;;19.97
70668;BMP280;58242;51.250;-1.118;2023-11-19T10:41:03;99430.63;;;19.87
70668;BMP280;58242;51.250;-1.118;2023-11-19T10:43:29;99434.56;;;19.75
70668;BMP280;58242;51.250;-1.118;2023-11-19T10:46:09;99425.72;;;19.68
70668;BMP280;58242;51.250;-1.118;2023-11-19T10:48:34;99438.50;;;19.64
70668;BMP280;58242;51.250;-1.118;2023-11-19T10:51:00;99436.59;;;19.61
70668;BMP280;58242;51.250;-1.118;2023-11-19T10:53:27;99442.41;;;19.60
70668;BMP280;58242;51.250;-1.118;2023-11-19T10:55:57;99435.88;;;19.54
70668;BMP280;58242;51.250;-1.118;2023-11-19T10:58:24;99420.00;;;19.46
70668;BMP280;58242;51.250;-1.118;2023-11-19T11:00:55;99422.75;;;19.39
70668;BMP280;58242;51.250;-1.118;2023-11-19T11:03:24;99420.84;;;19.36
70668;BMP280;58242;51.250;-1.118;2023-11-19T11:05:52;99420.09;;;19.32
70668;BMP280;58242;51.250;-1.118;2023-11-19T11:08:18;99413.50;;;19.33
70668;BMP280;58242;51.250;-1.118;2023-11-19T11:10:47;99409.66;;;19.27
70668;BMP280;58242;51.250;-1.118;2023-11-19T11:13:13;99406.19;;;19.23
70668;BMP280;58242;51.250;-1.118;2023-11-19T11:15:39;99415.13;;;19.20
70668;BMP280;58242;51.250;-1.118;2023-11-19T11:18:08;99408.91;;;19.23
70668;BMP280;58242;51.250;-1.118;2023-11-19T11:20:33;99410.81;;;19.26
70668;BMP280;58242;51.250;-1.118;2023-11-19T11:28:29;99404.53;;;19.43
70668;BMP280;58242;51.250;-1.118;2023-11-19T11:31:08;99398.31;;;19.46
70668;BMP280;58242;51.250;-1.118;2023-11-19T11:34:03;99367.69;;;19.49
70668;BMP280;58242;51.250;-1.118;2023-11-19T11:36:42;99404.53;;;19.43
70668;BMP280;58242;51.250;-1.118;2023-11-19T11:39:10;99416.97;;;19.40
70668;BMP280;58242;51.250;-1.118;2023-11-19T11:41:36;99399.53;;;19.38
70668;BMP280;58242;51.250;-1.118;2023-11-19T11:44:01;99407.66;;;19.38
70668;BMP280;58242;51.250;-1.118;2023-11-19T11:49:02;99390.28;;;19.32
70668;BMP280;58242;51.250;-1.118;2023-11-19T11:54:10;99390.34;;;19.22
70668;BMP280;58242;51.250;-1.118;2023-11-19T11:56:38;99395.00;;;19.21
70668;BMP280;58242;51.250;-1.118;2023-11-19T11:59:08;99379.50;;;19.18
70668;BMP280;58242;51.250;-1.118;2023-11-19T12:01:35;99385.31;;;19.17
70668;BMP280;58242;51.250;-1.118;2023-11-19T12:04:00;99381.84;;;19.17
70668;BMP280;58242;51.250;-1.118;2023-11-19T12:06:27;99382.22;;;19.15
70668;BMP280;58242;51.250;-1.118;2023-11-19T12:08:52;99381.06;;;19.16
70668;BMP280;58242;51.250;-1.118;2023-11-19T12:11:17;99388.03;;;19.17
70668;BMP280;58242;51.250;-1.118;2023-11-19T12:13:53;99392.31;;;19.18
70668;BMP280;58242;51.250;-1.118;2023-11-19T12:16:24;99395.75;;;19.18
70668;BMP280;58242;51.250;-1.118;2023-11-19T12:18:50;99390.34;;;19.18
70668;BMP280;58242;51.250;-1.118;2023-11-19T12:21:30;99388.38;;;19.22
70668;BMP280;58242;51.250;-1.118;2023-11-19T12:23:57;99389.91;;;19.27
70668;BMP280;58242;51.250;-1.118;2023-11-19T12:26:35;99390.66;;;19.34
70668;BMP280;58242;51.250;-1.118;2023-11-19T12:29:01;99389.47;;;19.38
70668;BMP280;58242;51.250;-1.118;2023-11-19T12:31:29;99390.63;;;19.41
70668;BMP280;58242;51.250;-1.118;2023-11-19T12:33:54;99368.94;;;19.41
70668;BMP280;58242;51.250;-1.118;2023-11-19T12:36:20;99373.94;;;19.42
70668;BMP280;58242;51.250;-1.118;2023-11-19T12:38:45;99375.88;;;19.42
70668;BMP280;58242;51.250;-1.118;2023-11-19T12:41:11;99364.28;;;19.41
70668;BMP280;58242;51.250;-1.118;2023-11-19T12:43:37;99369.66;;;19.45
70668;BMP280;58242;51.250;-1.118;2023-11-19T12:46:20;99360.38;;;19.46
70668;BMP280;58242;51.250;-1.118;2023-11-19T12:48:47;99368.91;;;19.51
70668;BMP280;58242;51.250;-1.118;2023-11-19T12:51:13;99359.59;;;19.52
70668;BMP280;58242;51.250;-1.118;2023-11-19T12:53:48;99352.22;;;19.52
70668;BMP280;58242;51.250;-1.118;2023-11-19T12:56:20;99375.47;;;19.50
70668;BMP280;58242;51.250;-1.118;2023-11-19T12:58:45;99360.00;;;19.47
70668;BMP280;58242;51.250;-1.118;2023-11-19T13:01:15;99369.66;;;19.45
70668;BMP280;58242;51.250;-1.118;2023-11-19T13:03:41;99364.28;;;19.41
70668;BMP280;58242;51.250;-1.118;2023-11-19T13:06:08;99366.22;;;19.41
70668;BMP280;58242;51.250;-1.118;2023-11-19T13:11:05;99362.00;;;19.36
70668;BMP280;58242;51.250;-1.118;2023-11-19T13:13:31;99361.22;;;19.36
70668;BMP280;58242;51.250;-1.118;2023-11-19T13:16:03;99361.25;;;19.33
70668;BMP280;58242;51.250;-1.118;2023-11-19T13:18:30;99363.97;;;19.29
70668;BMP280;58242;51.250;-1.118;2023-11-19T13:20:56;99372.88;;;19.26
70668;BMP280;58242;51.250;-1.118;2023-11-19T13:23:22;99366.72;;;19.22
70668;BMP280;58242;51.250;-1.118;2023-11-19T13:25:47;99367.50;;;19.19
70668;BMP280;58242;51.250;-1.118;2023-11-19T13:28:14;99367.91;;;19.21
70668;BMP280;58242;51.250;-1.118;2023-11-19T13:30:39;99353.56;;;19.21
70668;BMP280;58242;51.250;-1.118;2023-11-19T13:33:04;99340.38;;;19.23
70668;BMP280;58242;51.250;-1.118;2023-11-19T13:35:29;99345.03;;;19.26
70668;BMP280;58242;51.250;-1.118;2023-11-19T13:37:55;99341.53;;;19.29
70668;BMP280;58242;51.250;-1.118;2023-11-19T13:40:20;99342.66;;;19.31
70668;BMP280;58242;51.250;-1.118;2023-11-19T13:42:47;99344.97;;;19.36
70668;BMP280;58242;51.250;-1.118;2023-11-19T13:45:13;99340.28;;;19.40
70668;BMP280;58242;51.250;-1.118;2023-11-19T13:47:40;99344.91;;;19.43
70668;BMP280;58242;51.250;-1.118;2023-11-19T13:50:09;99336.41;;;19.41
70668;BMP280;58242;51.250;-1.118;2023-11-19T13:52:35;99334.47;;;19.38
70668;BMP280;58242;51.250;-1.118;2023-11-19T13:55:04;99333.34;;;19.35
70668;BMP280;58242;51.250;-1.118;2023-11-19T13:57:30;99338.00;;;19.35
70668;BMP280;58242;51.250;-1.118;2023-11-19T13:59:59;99333.34;;;19.35
70668;BMP280;58242;51.250;-1.118;2023-11-19T14:02:25;99338.78;;;19.35
70668;BMP280;58242;51.250;-1.118;2023-11-19T14:04:50;99327.94;;;19.35